createdAt,value
2022-10-04T00:02:37.959Z,0.90
2022-10-04T00:05:31.489Z,1.08
2022-10-04T00:08:44.814Z,0.50
2022-10-04T00:11:38.109Z,0.70
2022-10-04T00:14:21.030Z,0.50
2022-10-04T00:16:51.389Z,0.73
2022-10-04T00:22:56.558Z,0.90
2022-10-04T00:25:38.245Z,0.88
2022-10-04T00:35:55.846Z,0.68
2022-10-04T00:38:32.989Z,0.68
2022-10-04T00:41:27.518Z,0.95
2022-10-04T00:44:01.073Z,0.68
2022-10-04T00:46:35.693Z,0.90
2022-10-04T00:49:11.870Z,1.13
2022-10-04T00:52:22.701Z,0.90
2022-10-04T00:55:06.476Z,1.20
2022-10-04T00:57:53.177Z,0.40
2022-10-04T01:00:40.907Z,0.70
2022-10-04T01:03:39.041Z,0.60
2022-10-04T01:06:12.861Z,0.60
2022-10-04T01:09:02.312Z,0.63
2022-10-04T01:11:51.159Z,0.70
2022-10-04T01:14:40.122Z,0.70
2022-10-04T01:17:13.217Z,0.63
2022-10-04T01:19:52.863Z,0.60
2022-10-04T01:22:52.902Z,0.77
2022-10-04T01:25:54.483Z,0.73
2022-10-04T01:28:25.830Z,0.93
2022-10-04T01:30:55.050Z,0.47
2022-10-04T01:33:27.317Z,0.40
2022-10-04T01:36:21.881Z,0.60
2022-10-04T01:38:59.705Z,0.98
2022-10-04T01:41:41.790Z,0.57
2022-10-04T01:44:41.369Z,0.70
2022-10-04T01:47:29.783Z,0.90
2022-10-04T01:50:15.692Z,0.80
2022-10-04T01:52:54.316Z,0.63
2022-10-04T01:56:09.708Z,0.70
2022-10-04T01:58:53.136Z,0.40
2022-10-04T02:01:46.927Z,0.77
2022-10-04T02:04:29.808Z,0.88
2022-10-04T02:07:31.077Z,0.50
2022-10-04T02:10:22.127Z,0.60
2022-10-04T02:13:07.288Z,0.63
2022-10-04T02:16:01.911Z,0.82
2022-10-04T02:18:49.211Z,0.35
2022-10-04T02:21:55.699Z,0.50
2022-10-04T02:24:47.163Z,0.30
2022-10-04T02:27:28.267Z,0.70
2022-10-04T02:30:23.283Z,0.40
2022-10-04T02:33:23.603Z,0.38
2022-10-04T02:38:49.255Z,0.55
2022-10-04T02:41:24.544Z,0.63
2022-10-04T02:44:12.267Z,0.75
2022-10-04T02:47:01.483Z,0.35
2022-10-04T02:49:48.639Z,0.65
2022-10-04T02:52:28.484Z,0.30
2022-10-04T02:55:34.832Z,0.20
2022-10-04T02:58:20.139Z,0.40
2022-10-04T03:01:15.683Z,0.60
2022-10-04T03:04:10.838Z,0.43
2022-10-04T03:07:02.272Z,0.47
2022-10-04T03:09:35.725Z,0.60
2022-10-04T03:12:37.226Z,0.30
2022-10-04T03:15:13.645Z,0.40
2022-10-04T03:17:54.374Z,0.20
2022-10-04T03:20:43.899Z,0.47
2022-10-04T03:23:33.943Z,0.50
2022-10-04T03:26:31.949Z,0.45
2022-10-04T03:29:13.468Z,0.50
2022-10-04T03:32:07.204Z,0.43
2022-10-04T03:34:50.054Z,0.70
2022-10-04T03:37:38.673Z,0.50
2022-10-04T03:40:22.356Z,0.43
2022-10-04T03:42:54.547Z,0.40
2022-10-04T03:45:44.594Z,0.35
2022-10-04T03:48:42.564Z,0.60
2022-10-04T03:54:37.102Z,0.47
2022-10-04T03:57:09.538Z,0.30
2022-10-04T03:59:57.353Z,0.30
2022-10-04T04:02:56.390Z,0.75
2022-10-04T04:05:51.826Z,0.47
2022-10-04T04:09:00.971Z,0.40
2022-10-04T04:11:48.359Z,0.65
2022-10-04T04:14:32.433Z,0.40
2022-10-04T04:17:31.878Z,0.82
2022-10-04T04:20:14.283Z,0.38
2022-10-04T04:23:07.009Z,0.60
2022-10-04T04:25:40.751Z,0.60
2022-10-04T04:28:46.511Z,0.70
2022-10-04T04:31:37.517Z,0.47
2022-10-04T04:34:27.910Z,0.60
2022-10-04T04:37:17.724Z,0.52
2022-10-04T04:40:26.198Z,0.40
2022-10-04T04:43:11.776Z,0.98
2022-10-04T04:45:46.042Z,0.63
2022-10-04T04:48:25.259Z,0.68
2022-10-04T04:51:05.155Z,0.68
2022-10-04T04:53:43.308Z,0.52
2022-10-04T04:56:22.178Z,0.22
2022-10-04T04:58:53.059Z,0.60
2022-10-04T05:01:58.045Z,0.68
2022-10-04T05:04:38.701Z,0.60
2022-10-04T05:07:35.549Z,0.57
2022-10-04T05:11:13.093Z,0.63
2022-10-04T05:16:59.076Z,0.60
2022-10-04T05:22:43.176Z,0.82
2022-10-04T05:25:41.013Z,0.55
2022-10-04T05:28:12.626Z,0.68
2022-10-04T05:31:40.897Z,0.50
2022-10-04T05:41:14.417Z,0.90
2022-10-04T05:43:47.374Z,1.17
2022-10-04T05:46:44.148Z,0.77
2022-10-04T05:49:35.476Z,1.23
2022-10-04T05:52:41.213Z,0.57
2022-10-04T05:55:33.428Z,0.55
2022-10-04T05:58:48.545Z,0.57
2022-10-04T06:01:36.581Z,0.80
2022-10-04T06:08:15.705Z,0.98
2022-10-04T06:11:56.618Z,0.80
2022-10-04T06:15:09.336Z,1.00
2022-10-04T06:21:38.027Z,0.63
2022-10-04T06:24:54.648Z,0.30
2022-10-04T06:28:09.352Z,0.55
2022-10-04T06:31:21.693Z,0.45
2022-10-04T06:34:30.763Z,0.20
2022-10-04T06:37:25.213Z,0.20
2022-10-04T06:41:01.478Z,0.38
2022-10-04T06:44:35.757Z,0.22
2022-10-04T06:47:39.492Z,0.30
2022-10-04T06:50:41.156Z,0.30
2022-10-04T06:57:16.425Z,0.35
2022-10-04T07:00:17.974Z,0.25
2022-10-04T07:02:53.465Z,0.40
2022-10-04T07:06:09.420Z,0.03
2022-10-04T07:09:09.411Z,0.30
2022-10-04T07:11:57.804Z,0.17
2022-10-04T07:18:11.199Z,0.20
2022-10-04T07:24:19.411Z,0.40
2022-10-04T07:27:29.545Z,0.10
2022-10-04T08:35:28.825Z,0.20
2022-10-04T08:38:26.635Z,0.20
2022-10-04T08:41:49.462Z,0.20
2022-10-04T08:45:03.526Z,0.28
2022-10-04T08:48:11.057Z,0.30
2022-10-04T08:51:36.042Z,0.30
2022-10-04T08:55:09.991Z,0.20
2022-10-04T08:58:15.553Z,0.30
2022-10-04T09:31:59.363Z,0.30
2022-10-04T09:38:35.554Z,0.40
2022-10-04T09:41:50.376Z,0.25
2022-10-04T11:41:11.355Z,0.93
2022-10-04T11:44:07.942Z,1.48
2022-10-04T11:46:53.305Z,0.95
2022-10-04T11:49:45.213Z,1.23
2022-10-04T11:52:51.777Z,0.98
2022-10-04T11:55:55.749Z,1.33
2022-10-04T11:58:39.391Z,0.80
2022-10-04T12:01:41.394Z,1.05
2022-10-04T12:04:38.924Z,1.20
2022-10-04T12:07:27.806Z,1.20
2022-10-04T12:10:03.558Z,1.00
2022-10-04T12:13:00.974Z,1.23
2022-10-04T12:16:01.684Z,1.08
2022-10-04T12:19:03.008Z,1.17
2022-10-04T12:21:52.564Z,1.20
2022-10-04T12:24:48.720Z,1.15
2022-10-04T12:27:39.399Z,1.50
2022-10-04T12:30:24.027Z,1.60
2022-10-04T12:33:03.517Z,0.95
2022-10-04T12:35:43.349Z,1.38
2022-10-04T12:38:32.061Z,1.30
2022-10-04T12:41:12.489Z,1.38
2022-10-04T12:43:49.917Z,0.88
2022-10-04T12:46:30.521Z,1.50
2022-10-04T12:49:12.110Z,1.52
2022-10-04T12:51:54.125Z,1.10
2022-10-04T12:54:37.791Z,1.08
2022-10-04T12:57:24.994Z,1.00
2022-10-04T13:00:03.193Z,1.10
2022-10-04T13:02:59.725Z,1.20
2022-10-04T13:05:35.531Z,1.08
2022-10-04T13:08:18.365Z,1.40
2022-10-04T13:11:15.042Z,1.48
2022-10-04T13:14:21.197Z,1.15
2022-10-04T13:19:57.076Z,1.58
2022-10-04T13:22:57.081Z,1.45
2022-10-04T13:25:45.803Z,1.40
2022-10-04T13:28:25.531Z,1.33
2022-10-04T13:31:01.353Z,2.00
2022-10-04T13:33:39.145Z,1.70
2022-10-04T13:36:14.091Z,2.05
2022-10-04T13:39:07.474Z,1.65
2022-10-04T13:41:48.988Z,1.73
2022-10-04T13:44:46.757Z,1.50
2022-10-04T13:47:34.948Z,1.70
2022-10-04T13:50:26.376Z,1.85
2022-10-04T13:53:23.443Z,1.30
2022-10-04T13:56:22.916Z,1.00
2022-10-04T13:59:02.217Z,1.92
2022-10-04T14:01:54.546Z,1.40
2022-10-04T14:04:42.346Z,1.17
2022-10-04T14:07:31.279Z,1.10
2022-10-04T14:10:32.066Z,0.98
2022-10-04T14:13:48.933Z,1.08
2022-10-04T14:16:56.264Z,1.10
2022-10-04T14:20:09.383Z,1.02
2022-10-04T14:22:57.001Z,1.42
2022-10-04T14:25:53.996Z,1.15
2022-10-04T14:28:59.730Z,1.10
2022-10-04T14:32:06.796Z,1.38
2022-10-04T14:34:58.217Z,1.30
2022-10-04T14:38:01.931Z,1.40
2022-10-04T14:41:05.013Z,1.48
2022-10-04T14:44:10.686Z,1.15
2022-10-04T14:46:52.757Z,1.00
2022-10-04T14:49:41.411Z,1.40
2022-10-04T14:52:24.619Z,1.45
2022-10-04T14:54:58.128Z,1.10
2022-10-04T14:57:55.323Z,1.15
2022-10-04T15:00:25.393Z,1.30
2022-10-04T15:03:20.655Z,0.85
2022-10-04T15:06:22.105Z,1.08
2022-10-04T15:09:10.400Z,1.05
2022-10-04T15:11:44.354Z,1.23
2022-10-04T15:14:39.908Z,1.27
2022-10-04T15:17:12.620Z,1.90
2022-10-04T15:20:05.670Z,1.20
2022-10-04T15:22:43.179Z,0.98
2022-10-04T15:25:40.821Z,1.42
2022-10-04T15:28:18.254Z,1.10
2022-10-04T15:30:56.828Z,1.15
2022-10-04T15:33:37.800Z,1.38
2022-10-04T15:36:50.377Z,1.30
2022-10-04T15:39:54.702Z,1.52
2022-10-04T15:42:29.255Z,1.35
2022-10-04T15:45:24.391Z,1.40
2022-10-04T15:48:08.466Z,1.30
2022-10-04T15:50:44.124Z,1.52
2022-10-04T15:53:24.413Z,1.50
2022-10-04T15:56:02.935Z,1.10
2022-10-04T15:58:52.054Z,1.13
2022-10-04T16:01:45.974Z,0.82
2022-10-04T16:04:40.806Z,1.15
2022-10-04T16:07:34.251Z,0.90
2022-10-04T16:10:15.974Z,1.42
2022-10-04T16:13:10.015Z,1.05
2022-10-04T16:15:40.074Z,1.30
2022-10-04T16:18:40.540Z,1.35
2022-10-04T16:21:26.837Z,0.95
2022-10-04T16:24:39.323Z,1.20
2022-10-04T16:27:48.788Z,1.23
2022-10-04T16:30:28.838Z,1.10
2022-10-04T16:33:21.285Z,1.00
2022-10-04T16:36:03.797Z,0.95
2022-10-04T16:38:57.776Z,1.23
2022-10-04T16:41:40.156Z,1.05
2022-10-04T16:44:24.709Z,1.10
2022-10-04T16:46:55.099Z,1.27
2022-10-04T16:49:29.705Z,1.00
2022-10-04T16:52:29.395Z,0.90
2022-10-04T16:55:26.402Z,1.15
2022-10-04T16:58:27.735Z,2.35
2022-10-04T17:01:40.862Z,3.33
2022-10-04T17:04:26.944Z,5.22
2022-10-04T17:07:04.578Z,5.07
2022-10-04T17:09:36.764Z,3.63
2022-10-04T17:12:19.294Z,3.13
2022-10-04T17:15:07.619Z,3.00
2022-10-04T17:17:46.601Z,2.42
2022-10-04T17:20:29.675Z,2.20
2022-10-04T17:23:21.969Z,1.98
2022-10-04T17:26:03.707Z,1.65
2022-10-04T17:28:44.778Z,1.55
2022-10-04T17:31:18.968Z,1.70
2022-10-04T17:34:01.789Z,1.73
2022-10-04T17:36:38.636Z,2.15
2022-10-04T17:39:39.799Z,2.22
2022-10-04T17:42:16.312Z,2.60
2022-10-04T17:45:01.492Z,3.00
2022-10-04T17:48:00.204Z,2.63
2022-10-04T17:50:54.264Z,2.00
2022-10-04T17:53:46.029Z,2.30
2022-10-04T17:56:24.076Z,1.85
2022-10-04T17:58:55.777Z,1.95
2022-10-04T18:01:31.998Z,1.55
2022-10-04T18:04:10.159Z,1.42
2022-10-04T18:06:44.024Z,1.38
2022-10-04T18:09:21.902Z,1.38
2022-10-04T18:11:56.173Z,1.40
2022-10-04T18:14:53.260Z,1.38
2022-10-04T18:17:33.292Z,1.40
2022-10-04T18:20:27.611Z,1.20
2022-10-04T18:23:12.276Z,0.93
2022-10-04T18:25:43.364Z,1.48
2022-10-04T18:28:15.502Z,1.33
2022-10-04T18:30:59.226Z,0.90
2022-10-04T18:33:46.618Z,0.77
2022-10-04T18:36:25.132Z,0.88
2022-10-04T18:39:20.366Z,1.20
2022-10-04T18:42:50.824Z,0.50
2022-10-04T18:45:50.633Z,0.73
2022-10-04T18:48:56.528Z,0.90
2022-10-04T18:51:48.118Z,0.60
2022-10-04T18:54:46.704Z,0.82
2022-10-04T18:57:56.438Z,0.57
2022-10-04T19:07:54.153Z,0.70
2022-10-04T19:11:22.039Z,0.68
2022-10-04T19:14:41.591Z,0.50
2022-10-04T19:18:20.428Z,0.73
2022-10-04T19:28:36.638Z,0.90
2022-10-04T19:34:26.843Z,2.45
2022-10-04T19:37:16.612Z,0.80
2022-10-04T19:40:30.550Z,0.60
2022-10-04T19:43:30.803Z,0.63
2022-10-04T19:48:53.028Z,0.55
2022-10-04T19:51:41.067Z,0.70
2022-10-04T19:54:16.703Z,0.63
2022-10-04T19:56:49.036Z,0.70
2022-10-04T19:59:44.870Z,0.63
2022-10-04T20:02:19.601Z,0.80
2022-10-04T20:05:06.554Z,0.68
2022-10-04T20:08:04.174Z,0.70
2022-10-04T20:10:54.363Z,0.90
2022-10-04T20:16:29.181Z,0.93
2022-10-04T20:19:13.589Z,1.20
2022-10-04T20:21:53.100Z,1.35
2022-10-04T20:24:52.149Z,0.95
2022-10-04T20:27:54.070Z,0.70
2022-10-04T20:30:24.884Z,0.60
2022-10-04T20:33:00.651Z,0.85
2022-10-04T20:35:59.394Z,0.82
2022-10-04T20:39:05.575Z,0.95
2022-10-04T20:42:23.073Z,0.90
2022-10-04T20:44:58.453Z,1.15
2022-10-04T20:47:44.051Z,1.15
2022-10-04T20:50:27.177Z,0.85
2022-10-04T20:53:00.319Z,0.77
2022-10-04T20:55:30.984Z,0.98
2022-10-04T20:58:03.620Z,1.15
2022-10-04T21:00:35.261Z,1.05
2022-10-04T21:03:19.129Z,0.80
2022-10-04T21:06:05.399Z,1.27
2022-10-04T21:08:34.848Z,1.23
2022-10-04T21:11:20.451Z,0.95
2022-10-04T21:14:00.905Z,0.50
2022-10-04T21:16:45.997Z,0.77
2022-10-04T21:19:51.891Z,0.98
2022-10-04T21:22:37.182Z,0.88
2022-10-04T21:25:22.915Z,1.10
2022-10-04T21:27:52.127Z,1.45
2022-10-04T21:30:23.522Z,1.40
2022-10-04T21:32:53.845Z,1.65
2022-10-04T21:35:23.266Z,1.23
2022-10-04T21:37:54.788Z,1.23
2022-10-04T21:40:24.040Z,1.13
2022-10-04T21:42:52.940Z,1.30
2022-10-04T21:45:21.365Z,1.17
2022-10-04T21:47:49.480Z,0.98
2022-10-04T21:50:17.633Z,1.00
2022-10-04T21:52:45.748Z,1.73
2022-10-04T21:55:15.274Z,1.48
2022-10-04T21:57:43.296Z,0.98
2022-10-04T22:00:12.594Z,1.20
2022-10-04T22:02:40.652Z,1.57
2022-10-04T22:05:09.369Z,1.02
2022-10-04T22:07:37.369Z,1.13
2022-10-04T22:10:05.921Z,1.17
2022-10-04T22:12:35.350Z,1.70
2022-10-04T22:15:07.071Z,1.27
2022-10-04T22:17:35.143Z,1.60
2022-10-04T22:20:03.231Z,1.50
2022-10-04T22:22:34.281Z,0.85
2022-10-04T22:25:04.513Z,1.30
2022-10-04T22:27:32.504Z,1.10
2022-10-04T22:30:02.246Z,1.17
2022-10-04T22:32:30.294Z,1.63
2022-10-04T22:35:02.801Z,1.25
2022-10-04T22:37:31.196Z,1.77
2022-10-04T22:39:59.438Z,1.45
2022-10-04T22:42:32.896Z,1.08
2022-10-04T22:45:03.473Z,1.13
2022-10-04T22:47:33.031Z,0.90
2022-10-04T22:50:01.078Z,1.40
2022-10-04T22:52:30.937Z,1.55
2022-10-04T22:55:03.202Z,1.58
2022-10-04T22:57:31.797Z,1.83
2022-10-04T22:59:59.914Z,1.45
2022-10-04T23:02:31.836Z,1.30
2022-10-04T23:05:03.296Z,1.35
2022-10-04T23:07:36.040Z,1.75
2022-10-04T23:10:07.233Z,1.40
2022-10-04T23:12:35.303Z,1.27
2022-10-04T23:15:03.533Z,1.27
2022-10-04T23:17:36.596Z,1.27
2022-10-04T23:20:13.272Z,1.55
2022-10-04T23:22:44.922Z,1.52
2022-10-04T23:25:18.126Z,1.40
2022-10-04T23:27:47.215Z,1.20
2022-10-04T23:30:17.459Z,1.52
2022-10-04T23:35:21.862Z,1.23
2022-10-04T23:37:50.248Z,1.63
2022-10-04T23:40:22.196Z,1.45
2022-10-04T23:42:53.235Z,1.60
2022-10-04T23:45:23.610Z,1.42
2022-10-04T23:47:55.212Z,1.38
2022-10-04T23:50:26.605Z,1.45
2022-10-04T23:53:02.416Z,1.25
2022-10-04T23:55:34.548Z,1.80
2022-10-04T23:58:03.084Z,1.70
